Time;durP1;ratioP1;P1;durP2;ratioP2;P2;SDS_P1;SDS_P2;PMS_P1;PMS_P2;Temp;Humidity;BMP_temperature;BMP_pressure;BME280_temperature;BME280_humidity;BME280_pressure;Samples;Min_cycle;Max_cycle;Signal;HPM_P1;HPM_P2
2022/09/30 00:02:00;;;;;;;17.80;13.20;;;;;;;12.74;65.81;98258.42;224832;1237;139889;-66
2022/09/30 00:07:03;;;;;;;20.90;13.60;;;;;;;12.75;65.86;98258.67;224156;1251;139619;-66
2022/09/30 00:12:06;;;;;;;18.90;12.80;;;;;;;12.77;66.08;98252.95;224163;1251;141470;-66
2022/09/30 00:17:09;;;;;;;18.20;12.90;;;;;;;12.83;65.96;98251.23;224767;1241;141254;-66
2022/09/30 00:22:13;;;;;;;18.40;13.60;;;;;;;12.91;66.10;98245.01;224109;1248;140414;-64
2022/09/30 00:27:17;;;;;;;20.30;13.70;;;;;;;12.97;66.14;98247.00;224190;1251;140139;-67
2022/09/30 00:32:20;;;;;;;17.90;14.10;;;;;;;12.97;66.03;98243.77;224120;1250;139340;-68
2022/09/30 00:37:22;;;;;;;19.00;14.40;;;;;;;12.98;65.86;98245.91;224080;1250;139682;-68
2022/09/30 00:42:28;;;;;;;17.60;13.80;;;;;;;12.97;66.20;98246.48;224264;1259;139722;-66
2022/09/30 00:47:47;;;;;;;;;;;;;;;12.94;66.05;98249.77;224881;1236;139231;-68
2022/09/30 00:53:02;;;;;;;17.10;12.70;;;;;;;12.89;66.05;98249.66;224773;1240;126769;-66
2022/09/30 00:58:08;;;;;;;19.70;12.70;;;;;;;12.88;66.24;98240.27;224788;1244;139850;-68
2022/09/30 01:03:11;;;;;;;18.10;13.50;;;;;;;12.95;66.32;98241.34;224145;1251;139737;-66
2022/09/30 01:08:17;;;;;;;16.30;12.90;;;;;;;13.02;66.31;98254.80;224088;1258;140080;-68
2022/09/30 01:13:25;;;;;;;18.30;12.40;;;;;;;13.07;66.25;98261.86;224147;1245;140516;-70
2022/09/30 01:18:52;;;;;;;17.50;12.40;;;;;;;13.11;66.43;98254.75;224196;1253;139952;-72
2022/09/30 01:24:01;;;;;;;17.20;12.60;;;;;;;13.15;66.36;98249.83;224158;1254;139021;-71
2022/09/30 01:29:13;;;;;;;18.50;12.80;;;;;;;13.14;66.29;98240.58;224907;1242;139360;-67
2022/09/30 01:34:36;;;;;;;18.90;13.20;;;;;;;13.11;66.23;98250.85;224194;1251;139604;-66
2022/09/30 01:39:42;;;;;;;16.60;12.60;;;;;;;13.09;66.18;98261.48;224118;1250;140252;-69
2022/09/30 01:45:02;;;;;;;15.30;12.90;;;;;;;13.11;66.42;98258.46;224117;1251;139892;-68
2022/09/30 01:50:33;;;;;;;17.10;12.20;;;;;;;13.19;66.39;98262.11;224133;1251;140516;-67
2022/09/30 01:55:52;;;;;;;18.70;13.30;;;;;;;13.24;66.51;98261.50;224802;1244;139621;-68
2022/09/30 02:00:59;;;;;;;19.10;13.30;;;;;;;13.25;66.34;98264.96;224141;1251;139561;-70
2022/09/30 02:06:07;;;;;;;16.70;12.20;;;;;;;13.24;66.43;98271.09;224951;1250;138822;-66
2022/09/30 02:11:22;;;;;;;19.40;12.60;;;;;;;13.23;66.35;98272.80;224142;1251;140382;-71
2022/09/30 02:16:34;;;;;;;14.70;12.10;;;;;;;13.21;66.41;98267.95;224774;1243;140011;-74
2022/09/30 02:21:40;;;;;;;18.70;11.70;;;;;;;13.19;66.47;98258.31;224807;1237;139405;-63
2022/09/30 02:26:48;;;;;;;13.80;10.90;;;;;;;13.23;66.53;98257.82;224938;1244;139992;-67
2022/09/30 02:31:55;;;;;;;14.00;10.70;;;;;;;13.31;66.48;98252.71;224088;1251;139944;-66
2022/09/30 02:37:24;;;;;;;15.00;11.00;;;;;;;13.36;66.62;98252.69;224804;1242;141221;-66
2022/09/30 02:42:29;;;;;;;15.60;10.60;;;;;;;13.38;66.62;98259.28;224145;1254;229823;-65
2022/09/30 02:47:53;;;;;;;16.80;11.40;;;;;;;13.36;66.44;98259.95;224694;1244;140091;-66
2022/09/30 02:52:58;;;;;;;15.20;10.60;;;;;;;13.35;66.54;98257.02;224816;1244;139378;-66
2022/09/30 02:58:14;;;;;;;14.30;9.40;;;;;;;13.35;66.74;98262.90;224751;1252;139400;-66
2022/09/30 03:03:31;;;;;;;14.70;10.10;;;;;;;13.40;66.67;98268.71;224183;1251;139807;-65
2022/09/30 03:08:34;;;;;;;12.30;9.60;;;;;;;13.47;66.56;98270.21;224810;1252;139720;-67
2022/09/30 03:14:13;;;;;;;14.20;10.10;;;;;;;13.51;66.93;98274.54;224700;1242;139378;-65
2022/09/30 03:19:33;;;;;;;13.90;11.10;;;;;;;13.53;66.77;98270.48;224049;1259;139411;-66
2022/09/30 03:25:08;;;;;;;17.20;11.30;;;;;;;13.50;66.57;98272.96;224351;1250;139471;-66
2022/09/30 03:30:17;;;;;;;14.20;11.40;;;;;;;13.49;66.59;98279.48;224337;1245;139167;-65
2022/09/30 03:35:36;;;;;;;13.50;10.40;;;;;;;13.47;66.69;98275.23;224199;1243;139230;-65
2022/09/30 03:40:58;;;;;;;14.30;11.20;;;;;;;13.50;66.59;98269.48;224828;1236;140605;-66
2022/09/30 03:46:10;;;;;;;15.60;11.80;;;;;;;13.55;66.69;98273.44;224750;1244;139949;-67
2022/09/30 03:51:14;;;;;;;16.10;12.30;;;;;;;13.57;66.72;98282.73;224160;1253;139411;-69
2022/09/30 03:56:24;;;;;;;16.30;12.30;;;;;;;13.57;66.75;98289.52;224105;1248;139955;-68
2022/09/30 04:01:28;;;;;;;17.50;12.10;;;;;;;13.54;66.66;98289.60;224174;1248;138897;-68
2022/09/30 04:06:31;;;;;;;16.30;12.80;;;;;;;13.51;66.73;98292.34;224960;1250;140033;-68
2022/09/30 04:11:34;;;;;;;17.20;13.20;;;;;;;13.51;66.84;98290.95;224120;1245;139198;-67
2022/09/30 04:16:36;;;;;;;16.00;12.30;;;;;;;13.53;66.91;98294.87;224083;1251;140168;-65
2022/09/30 04:21:39;;;;;;;15.50;12.50;;;;;;;13.56;66.77;98294.98;224845;1244;139381;-67
2022/09/30 04:26:42;;;;;;;22.80;14.40;;;;;;;13.57;66.86;98302.18;224107;1245;139841;-66
2022/09/30 04:31:45;;;;;;;18.50;13.00;;;;;;;13.56;67.08;98305.61;224131;1251;139847;-66
2022/09/30 04:36:48;;;;;;;18.50;12.20;;;;;;;13.55;67.15;98304.30;224904;1244;140064;-69
2022/09/30 04:41:52;;;;;;;16.50;13.30;;;;;;;13.53;67.07;98306.44;224041;1257;139989;-66
2022/09/30 04:46:56;;;;;;;17.50;12.60;;;;;;;13.51;67.28;98306.98;224073;1257;139444;-69
2022/09/30 04:51:59;;;;;;;18.90;14.30;;;;;;;13.52;67.42;98315.21;224094;1257;141235;-69
2022/09/30 04:57:02;;;;;;;40.40;30.50;;;;;;;13.58;67.51;98309.95;224053;1246;139656;-68
2022/09/30 05:02:05;;;;;;;24.10;17.80;;;;;;;13.66;67.73;98310.12;224157;1249;139799;-68
2022/09/30 05:07:08;;;;;;;18.60;13.20;;;;;;;13.78;67.83;98308.05;224763;1244;139060;-68
2022/09/30 05:12:11;;;;;;;20.10;13.60;;;;;;;13.78;67.63;98310.54;224167;1254;139290;-68
2022/09/30 05:17:14;;;;;;;16.70;11.90;;;;;;;13.75;67.59;98317.23;224611;1237;139746;-69
2022/09/30 05:22:17;;;;;;;18.80;12.40;;;;;;;13.70;67.45;98321.68;224735;1244;139151;-68
2022/09/30 05:27:21;;;;;;;15.80;12.00;;;;;;;13.72;67.58;98325.60;223981;1250;140365;-68
2022/09/30 05:32:27;;;;;;;16.00;12.30;;;;;;;13.75;67.69;98340.56;224068;1244;139845;-68
2022/09/30 05:37:34;;;;;;;20.80;13.30;;;;;;;13.77;67.64;98343.02;224166;1254;139209;-67
2022/09/30 05:42:37;;;;;;;18.90;13.00;;;;;;;13.76;67.78;98342.77;224822;1239;139570;-66
2022/09/30 05:47:41;;;;;;;91.20;67.10;;;;;;;13.75;67.75;98345.17;224765;1241;139737;-63
2022/09/30 05:52:44;;;;;;;19.50;14.90;;;;;;;13.80;68.02;98340.61;224079;1253;139176;-65
2022/09/30 05:57:48;;;;;;;20.50;13.90;;;;;;;13.82;67.85;98337.25;224808;1252;140328;-64
2022/09/30 06:02:51;;;;;;;17.60;12.70;;;;;;;13.85;67.82;98339.09;224180;1250;140081;-67
2022/09/30 06:07:54;;;;;;;17.60;12.60;;;;;;;13.90;67.92;98334.98;224785;1244;139317;-68
2022/09/30 06:12:58;;;;;;;19.50;12.90;;;;;;;13.93;67.92;98345.69;224104;1251;139321;-67
2022/09/30 06:18:01;;;;;;;19.30;13.90;;;;;;;13.96;68.09;98350.30;224977;1243;139857;-67
2022/09/30 06:23:04;;;;;;;20.30;14.40;;;;;;;13.99;68.19;98354.17;224812;1243;139846;-67
2022/09/30 06:28:07;;;;;;;23.30;13.80;;;;;;;14.01;67.99;98353.14;224835;1247;139160;-68
2022/09/30 06:33:10;;;;;;;36.90;25.90;;;;;;;14.06;68.40;98348.56;224119;1251;140717;-70
2022/09/30 06:38:17;;;;;;;20.90;15.00;;;;;;;14.17;68.37;98345.05;224156;1251;139508;-68
2022/09/30 06:43:20;;;;;;;20.70;14.90;;;;;;;14.22;68.18;98353.19;224787;1253;139307;-66
2022/09/30 06:48:23;;;;;;;20.70;14.70;;;;;;;14.22;68.19;98355.57;224829;1237;139350;-69
2022/09/30 06:53:40;;;;;;;23.50;15.10;;;;;;;14.20;68.16;98354.61;224072;1255;139578;-67
2022/09/30 06:58:46;;;;;;;24.80;16.60;;;;;;;14.17;68.10;98358.41;224790;1242;140065;-67
2022/09/30 07:03:56;;;;;;;24.90;14.40;;;;;;;14.13;68.14;98350.04;224770;1241;139788;-68
2022/09/30 07:08:59;;;;;;;23.00;16.00;;;;;;;14.16;68.14;98340.51;224084;1251;140418;-68
2022/09/30 07:14:04;;;;;;;22.80;15.60;;;;;;;14.24;68.32;98348.07;224763;1240;139672;-71
2022/09/30 07:19:10;;;;;;;19.10;14.90;;;;;;;14.30;68.33;98355.52;224055;1251;140850;-67
2022/09/30 07:24:13;;;;;;;22.60;15.70;;;;;;;14.31;68.39;98365.66;224235;1250;140060;-71
2022/09/30 07:29:17;;;;;;;20.70;15.30;;;;;;;14.29;68.30;98377.00;224789;1240;139286;-65
2022/09/30 07:34:20;;;;;;;21.40;15.10;;;;;;;14.27;68.21;98376.39;224717;1244;139280;-65
2022/09/30 07:39:23;;;;;;;20.80;14.40;;;;;;;14.26;68.24;98388.33;224091;1250;141252;-64
2022/09/30 07:44:28;;;;;;;19.60;15.10;;;;;;;14.29;68.22;98392.92;224810;1244;140331;-64
2022/09/30 07:49:31;;;;;;;19.20;13.80;;;;;;;14.31;68.37;98387.15;224122;1254;139853;-65
2022/09/30 07:54:34;;;;;;;19.40;14.80;;;;;;;14.32;68.37;98389.40;224198;1241;140388;-65
2022/09/30 07:59:44;;;;;;;20.50;14.90;;;;;;;14.31;68.46;98391.44;224807;1243;139632;-66
2022/09/30 08:04:47;;;;;;;23.20;14.40;;;;;;;14.33;68.48;98391.81;224015;1251;140024;-65
2022/09/30 08:09:50;;;;;;;370.00;254.70;;;;;;;14.38;68.42;98396.59;224807;1244;140071;-67
2022/09/30 08:14:53;;;;;;;25.20;17.90;;;;;;;14.47;68.77;98394.55;224066;1251;140066;-68
2022/09/30 08:19:56;;;;;;;24.30;16.20;;;;;;;14.52;68.55;98395.35;224052;1248;139441;-66
2022/09/30 08:24:59;;;;;;;21.10;15.00;;;;;;;14.53;68.43;98399.39;224780;1244;140097;-65
2022/09/30 08:30:03;;;;;;;20.80;15.10;;;;;;;14.52;68.33;98400.40;224199;1254;140046;-70
2022/09/30 08:35:07;;;;;;;21.70;15.30;;;;;;;14.50;68.40;98400.01;224177;1251;139037;-67
2022/09/30 08:40:27;;;;;;;23.30;14.40;;;;;;;14.49;68.42;98405.99;224067;1254;139417;-70
2022/09/30 08:45:39;;;;;;;21.60;14.30;;;;;;;14.52;68.41;98407.70;224028;1251;139971;-70
2022/09/30 08:51:04;;;;;;;25.20;15.70;;;;;;;14.57;68.52;98405.66;224087;1244;139691;-69
2022/09/30 08:56:16;;;;;;;21.80;15.10;;;;;;;14.60;68.62;98407.55;224072;1248;140468;-68
2022/09/30 09:01:26;;;;;;;21.60;14.90;;;;;;;14.61;68.67;98406.57;224796;1237;139611;-67
2022/09/30 09:07:08;;;;;;;20.10;14.10;;;;;;;14.61;68.58;98407.45;224792;1241;139848;-64
2022/09/30 09:12:35;;;;;;;25.60;15.00;;;;;;;14.58;68.61;98414.13;224158;1255;140464;-64
2022/09/30 09:17:54;;;;;;;19.60;13.30;;;;;;;14.63;68.74;98414.20;224111;1252;140972;-69
2022/09/30 09:23:18;;;;;;;23.10;14.60;;;;;;;14.67;68.75;98412.27;224070;1244;140416;-65
2022/09/30 09:28:29;;;;;;;235.40;144.80;;;;;;;14.68;68.73;98406.11;224763;1244;140156;-66
2022/09/30 09:33:38;;;;;;;24.50;15.70;;;;;;;14.74;68.86;98405.41;224047;1251;140884;-66
2022/09/30 09:39:12;;;;;;;20.80;14.10;;;;;;;14.75;68.82;98402.45;224001;1248;139314;-68
2022/09/30 09:44:55;;;;;;;18.70;13.60;;;;;;;14.71;68.66;98406.33;224647;1244;139307;-68
2022/09/30 09:50:03;;;;;;;17.10;12.10;;;;;;;14.71;68.66;98408.38;224716;1243;140077;-68
2022/09/30 09:55:08;;;;;;;19.60;13.30;;;;;;;14.72;68.69;98413.94;223896;1261;140175;-66
2022/09/30 10:05:59;;;;;;;18.10;13.40;;;;;;;14.74;68.97;98420.70;224036;1251;138939;-69
2022/09/30 10:11:24;;;;;;;21.40;13.20;;;;;;;14.77;68.98;98420.85;224049;1248;139600;-67
2022/09/30 10:16:30;;;;;;;18.40;12.40;;;;;;;14.81;68.98;98428.37;224644;1244;140073;-70
2022/09/30 10:21:34;;;;;;;18.10;12.00;;;;;;;14.85;68.82;98430.50;224045;1251;141344;-69
2022/09/30 10:26:43;;;;;;;20.50;12.30;;;;;;;14.85;68.85;98441.02;224018;1246;140232;-66
2022/09/30 10:31:53;;;;;;;16.10;11.60;;;;;;;14.84;68.95;98444.88;224763;1244;139593;-66
2022/09/30 10:37:09;;;;;;;16.00;10.90;;;;;;;14.81;69.01;98450.13;224826;1244;139659;-65
2022/09/30 10:42:22;;;;;;;14.90;10.60;;;;;;;14.79;69.02;98456.56;224105;1253;139812;-65
2022/09/30 10:47:29;;;;;;;3.30;3.00;;;;;;;14.81;69.09;98463.85;223966;1244;140667;-64
2022/09/30 10:52:49;;;;;;;14.30;10.40;;;;;;;14.85;69.10;98465.77;223910;1254;140044;-65
2022/09/30 10:57:53;;;;;;;14.20;9.60;;;;;;;14.88;69.21;98468.58;224794;1240;139229;-65
2022/09/30 11:02:59;;;;;;;14.10;9.90;;;;;;;14.90;69.24;98469.45;224095;1251;139642;-67
2022/09/30 11:08:08;;;;;;;;;;;;;;;14.91;69.38;98467.79;224000;1251;139586;-65
2022/09/30 11:13:29;;;;;;;17.90;10.30;;;;;;;14.95;69.60;98470.45;224000;1244;125820;-66
2022/09/30 11:18:53;;;;;;;11.50;8.50;;;;;;;14.99;69.43;98472.64;224066;1251;140967;-66
2022/09/30 11:24:01;;;;;;;14.50;8.80;;;;;;;15.03;69.31;98470.47;224041;1244;140018;-65
2022/09/30 11:29:12;;;;;;;9.80;7.70;;;;;;;15.09;69.37;98469.39;224699;1237;140266;-68
2022/09/30 11:34:35;;;;;;;9.70;7.40;;;;;;;15.17;69.44;98473.73;224072;1259;139238;-67
2022/09/30 11:40:21;;;;;;;10.00;7.20;;;;;;;15.20;69.46;98472.73;224068;1237;139492;-65
2022/09/30 11:45:52;;;;;;;8.80;6.80;;;;;;;15.21;69.47;98478.67;223832;1250;139939;-65
2022/09/30 11:51:14;;;;;;;8.70;6.10;;;;;;;15.24;69.52;98478.45;224030;1248;139218;-67
2022/09/30 11:56:45;;;;;;;8.00;5.70;;;;;;;15.26;69.28;98482.36;224054;1253;140781;-66
2022/09/30 12:01:51;;;;;;;7.30;5.50;;;;;;;15.34;69.02;98482.11;224060;1244;140755;-64
2022/09/30 12:07:03;;;;;;;183.90;129.50;;;;;;;15.38;69.01;98479.66;224147;1246;139575;-69
2022/09/30 12:12:09;;;;;;;11.10;8.20;;;;;;;15.43;69.29;98483.35;224068;1254;140722;-70
2022/09/30 12:17:32;;;;;;;6.80;5.20;;;;;;;15.46;69.40;98482.73;224005;1244;139748;-67
2022/09/30 12:22:42;;;;;;;8.20;5.10;;;;;;;15.44;69.26;98478.89;224066;1254;139334;-66
2022/09/30 12:27:55;;;;;;;6.90;4.40;;;;;;;15.44;69.11;98481.08;223995;1247;140767;-66
2022/09/30 12:33:10;;;;;;;8.70;4.70;;;;;;;15.45;69.23;98485.08;224045;1251;139292;-67
2022/09/30 12:38:43;;;;;;;5.70;4.30;;;;;;;15.47;69.25;98489.06;224044;1257;139441;-66
2022/09/30 12:43:59;;;;;;;7.50;4.50;;;;;;;15.48;69.23;98493.79;224773;1242;139248;-67
2022/09/30 12:49:05;;;;;;;;;;;;;;;15.45;69.24;98499.37;224133;1251;138633;-65
2022/09/30 12:54:27;;;;;;;5.10;4.00;;;;;;;15.40;69.27;98510.45;224153;1251;126797;-66
2022/09/30 12:59:35;;;;;;;5.40;3.80;;;;;;;15.36;69.22;98517.56;224009;1251;140852;-66
2022/09/30 13:04:41;;;;;;;7.50;3.40;;;;;;;15.41;69.19;98521.06;224671;1237;140070;-66
2022/09/30 13:09:59;;;;;;;5.80;3.30;;;;;;;15.48;69.27;98525.98;223972;1253;141343;-67
2022/09/30 13:15:41;;;;;;;5.60;4.00;;;;;;;15.54;69.38;98535.06;224013;1251;140357;-68
2022/09/30 13:20:56;;;;;;;5.30;3.80;;;;;;;15.59;69.32;98542.66;224685;1230;139536;-68
2022/09/30 13:26:00;;;;;;;4.80;3.80;;;;;;;15.60;69.13;98545.38;224747;1237;139140;-68
2022/09/30 13:31:23;;;;;;;4.10;3.20;;;;;;;15.60;69.07;98555.41;224067;1246;140958;-68
2022/09/30 13:36:40;;;;;;;7.20;5.00;;;;;;;15.63;69.07;98559.08;224094;1244;140421;-68
2022/09/30 13:41:47;;;;;;;33.10;23.70;;;;;;;15.66;69.08;98560.61;224079;1248;139429;-69
2022/09/30 13:46:55;;;;;;;4.10;3.70;;;;;;;15.78;69.17;98560.25;224548;1240;140376;-67
2022/09/30 13:51:59;;;;;;;4.70;3.40;;;;;;;15.76;68.67;98563.53;224044;1248;139152;-69
2022/09/30 13:57:04;;;;;;;3.40;3.10;;;;;;;15.72;68.61;98563.69;224711;1244;139376;-67
2022/09/30 14:02:39;;;;;;;5.00;3.20;;;;;;;15.68;68.58;98556.52;224038;1243;140000;-69
2022/09/30 14:08:11;;;;;;;2.80;2.50;;;;;;;15.70;68.46;98559.41;223981;1245;140602;-69
2022/09/30 14:13:51;;;;;;;3.50;2.90;;;;;;;15.77;68.67;98557.52;224707;1244;139917;-68
2022/09/30 14:19:12;;;;;;;3.50;2.90;;;;;;;15.81;68.76;98561.55;224159;1251;139832;-69
2022/09/30 14:24:22;;;;;;;8.30;5.70;;;;;;;15.85;68.92;98569.70;224791;1244;140311;-68
2022/09/30 14:29:45;;;;;;;4.50;3.20;;;;;;;15.86;68.90;98573.83;224740;1236;139196;-67
2022/09/30 14:34:48;;;;;;;4.60;2.80;;;;;;;15.79;68.46;98580.34;224012;1247;139496;-69
2022/09/30 14:39:54;;;;;;;;;;;;;;;15.82;68.48;98584.55;224684;1244;140815;-69
2022/09/30 14:45:03;;;;;;;4.00;2.80;;;;;;;15.83;68.40;98588.05;224032;1252;126399;-69
2022/09/30 14:50:19;;;;;;;3.60;3.00;;;;;;;15.80;68.33;98586.86;223994;1244;139135;-67
2022/09/30 14:55:26;;;;;;;6.70;3.70;;;;;;;15.77;68.23;98586.66;224026;1251;139733;-66
2022/09/30 15:00:30;;;;;;;4.80;3.50;;;;;;;15.68;68.16;98595.88;224210;1251;139422;-67
2022/09/30 15:05:35;;;;;;;5.40;3.00;;;;;;;15.58;68.43;98600.32;224048;1251;139107;-67
2022/09/30 15:10:46;;;;;;;3.60;2.70;;;;;;;15.56;68.37;98608.00;223974;1244;139860;-68
2022/09/30 15:15:49;;;;;;;3.30;3.00;;;;;;;15.58;68.29;98612.68;224112;1244;139961;-69
2022/09/30 15:20:59;;;;;;;3.30;3.00;;;;;;;15.60;68.49;98613.23;224036;1248;138886;-68
2022/09/30 15:26:02;;;;;;;3.30;3.00;;;;;;;15.61;68.34;98609.33;224694;1243;139496;-67
2022/09/30 15:31:14;;;;;;;3.50;3.10;;;;;;;15.59;68.18;98611.49;224107;1251;139942;-68
2022/09/30 15:36:17;;;;;;;3.50;3.00;;;;;;;15.54;68.33;98630.58;224025;1251;139135;-67
2022/09/30 15:41:21;;;;;;;3.30;3.00;;;;;;;15.56;68.20;98637.69;224600;1238;140379;-69
2022/09/30 15:46:37;;;;;;;4.40;3.30;;;;;;;15.61;68.42;98640.08;224061;1251;140017;-67
2022/09/30 15:51:42;;;;;;;5.00;2.80;;;;;;;15.62;68.31;98642.20;224007;1251;139610;-67
2022/09/30 15:56:45;;;;;;;3.80;2.70;;;;;;;15.60;68.40;98652.48;224754;1238;139019;-67
2022/09/30 16:01:51;;;;;;;3.60;3.00;;;;;;;15.58;68.54;98655.96;224013;1238;139363;-68
2022/09/30 16:07:08;;;;;;;5.70;3.70;;;;;;;15.54;68.55;98656.31;224765;1228;140259;-67
2022/09/30 16:12:11;;;;;;;5.00;4.50;;;;;;;15.55;68.57;98660.50;223858;1251;140121;-67
2022/09/30 16:17:33;;;;;;;4.90;4.40;;;;;;;15.57;68.46;98661.02;224626;1244;141857;-68
2022/09/30 16:22:39;;;;;;;8.30;5.40;;;;;;;15.57;68.54;98660.65;224001;1251;138810;-67
2022/09/30 16:27:42;;;;;;;5.50;4.70;;;;;;;15.55;68.56;98666.43;223940;1244;139435;-67
2022/09/30 16:32:50;;;;;;;6.10;5.10;;;;;;;15.50;68.74;98670.45;224038;1244;139120;-67
2022/09/30 16:38:01;;;;;;;13.60;10.00;;;;;;;15.44;68.69;98684.88;224760;1241;138978;-66
2022/09/30 16:43:05;;;;;;;8.10;4.70;;;;;;;15.46;68.99;98702.28;223937;1235;140897;-68
2022/09/30 16:48:17;;;;;;;5.30;4.60;;;;;;;15.46;68.85;98701.50;223988;1238;140317;-67
2022/09/30 16:53:20;;;;;;;5.50;4.50;;;;;;;15.43;68.88;98702.31;224888;1237;141431;-67
2022/09/30 16:58:24;;;;;;;6.80;4.90;;;;;;;15.40;68.99;98709.23;224190;1251;139099;-66
2022/09/30 17:03:27;;;;;;;5.70;4.10;;;;;;;15.37;68.92;98704.55;224876;1236;139582;-68
2022/09/30 17:08:30;;;;;;;6.70;5.50;;;;;;;15.38;69.11;98695.97;224800;1237;140525;-66
2022/09/30 17:13:34;;;;;;;6.40;4.30;;;;;;;15.37;68.95;98708.16;224099;1243;140211;-66
2022/09/30 17:18:37;;;;;;;6.50;4.10;;;;;;;15.38;69.10;98715.02;224244;1248;139425;-67
2022/09/30 17:23:40;;;;;;;5.80;4.40;;;;;;;15.37;69.21;98710.98;224728;1240;139054;-66
2022/09/30 17:28:43;;;;;;;6.70;4.70;;;;;;;15.37;69.14;98715.13;224879;1241;139952;-66
2022/09/30 17:33:48;;;;;;;6.00;4.60;;;;;;;15.33;68.89;98712.61;224844;1230;139670;-67
2022/09/30 17:38:53;;;;;;;6.50;5.00;;;;;;;15.26;68.85;98719.92;224142;1251;139108;-67
2022/09/30 17:44:01;;;;;;;8.90;5.10;;;;;;;15.24;69.05;98725.59;224740;1244;139694;-66
2022/09/30 17:49:04;;;;;;;10.60;6.00;;;;;;;15.26;69.00;98730.27;224972;1236;140437;-68
2022/09/30 17:54:17;;;;;;;7.50;6.10;;;;;;;15.25;68.97;98742.27;224141;1245;139394;-67
2022/09/30 17:59:20;;;;;;;7.80;6.50;;;;;;;15.22;69.02;98758.14;224900;1243;139146;-66
2022/09/30 18:04:24;;;;;;;7.60;6.20;;;;;;;15.15;68.96;98760.27;224871;1242;139491;-67
2022/09/30 18:09:28;;;;;;;8.60;6.40;;;;;;;15.12;69.07;98769.90;224192;1244;139627;-68
2022/09/30 18:14:37;;;;;;;7.60;6.30;;;;;;;15.13;69.00;98774.23;224121;1246;139854;-67
2022/09/30 18:19:40;;;;;;;9.60;7.00;;;;;;;15.14;68.95;98780.60;224069;1254;140660;-67
2022/09/30 18:30:10;;;;;;;9.30;7.20;;;;;;;15.07;68.93;98782.93;224192;1244;139075;-67
2022/09/30 18:35:18;;;;;;;9.90;7.70;;;;;;;15.03;68.87;98782.03;224188;1251;138830;-67
2022/09/30 18:40:24;;;;;;;8.60;7.00;;;;;;;14.98;68.98;98790.52;224885;1244;139127;-67
2022/09/30 18:45:30;;;;;;;9.70;6.90;;;;;;;14.97;68.97;98788.65;224133;1251;139804;-68
2022/09/30 18:50:33;;;;;;;10.10;7.70;;;;;;;14.98;69.17;98788.02;224227;1252;138913;-67
2022/09/30 18:55:37;;;;;;;9.30;7.80;;;;;;;15.01;69.17;98787.10;224164;1245;139383;-68
2022/09/30 19:00:40;;;;;;;14.00;8.10;;;;;;;15.00;69.27;98796.98;224233;1250;138942;-68
2022/09/30 19:05:43;;;;;;;10.10;8.10;;;;;;;14.97;69.15;98811.15;224131;1253;139245;-67
2022/09/30 19:10:46;;;;;;;9.40;7.90;;;;;;;14.92;69.23;98801.73;224201;1251;140161;-67
2022/09/30 19:15:49;;;;;;;10.80;8.10;;;;;;;14.92;69.36;98802.12;224849;1236;140457;-65
2022/09/30 19:20:53;;;;;;;10.70;8.20;;;;;;;14.95;69.39;98804.02;224883;1237;139872;-66
2022/09/30 19:25:57;;;;;;;12.50;8.30;;;;;;;14.94;69.46;98801.09;224121;1245;139419;-67
2022/09/30 19:31:15;;;;;;;9.60;8.30;;;;;;;14.92;69.39;98798.22;224227;1245;139747;-67
2022/09/30 19:36:19;;;;;;;13.40;9.20;;;;;;;14.88;69.48;98796.70;223339;1249;139242;-65
2022/09/30 19:41:26;;;;;;;10.40;8.60;;;;;;;14.85;69.49;98791.59;221948;1247;139123;-65
2022/09/30 19:46:33;;;;;;;11.20;8.70;;;;;;;14.86;69.49;98785.98;221739;1243;139743;-65
2022/09/30 19:51:37;;;;;;;11.40;8.70;;;;;;;14.88;69.59;98786.35;221894;1247;139293;-64
2022/09/30 19:56:41;;;;;;;12.10;9.30;;;;;;;14.87;69.64;98793.89;221906;1243;139837;-65
2022/09/30 20:01:46;;;;;;;27.20;20.20;;;;;;;14.93;70.16;98798.66;221848;1250;139805;-65
2022/09/30 20:06:52;;;;;;;13.10;9.90;;;;;;;14.94;69.84;98798.55;222026;1237;139279;-65
2022/09/30 20:11:57;;;;;;;12.00;9.20;;;;;;;14.86;69.70;98799.58;221896;1244;139768;-64
2022/09/30 20:17:00;;;;;;;12.50;9.70;;;;;;;14.77;69.70;98805.36;221816;1246;245383;-64
2022/09/30 20:22:05;;;;;;;12.20;9.50;;;;;;;14.72;69.68;98809.85;221843;1244;141079;-65
2022/09/30 20:27:11;;;;;;;15.00;9.70;;;;;;;14.72;69.75;98812.34;221819;1244;139921;-65
2022/09/30 20:32:15;;;;;;;13.50;10.20;;;;;;;14.74;70.05;98811.48;221807;1243;139865;-65
2022/09/30 20:37:20;;;;;;;;;;;;;;;14.77;70.15;98810.88;221824;1237;139732;-64
2022/09/30 20:42:27;;;;;;;12.30;10.20;;;;;;;14.74;69.98;98815.80;222063;1244;125170;-64
2022/09/30 20:47:35;;;;;;;15.70;10.10;;;;;;;14.66;69.98;98821.80;221650;1244;139601;-64
2022/09/30 20:52:39;;;;;;;11.50;9.70;;;;;;;14.60;70.28;98819.90;221866;1243;139819;-64
2022/09/30 20:57:43;;;;;;;10.40;9.10;;;;;;;14.60;70.30;98814.27;221781;1246;139859;-66
2022/09/30 21:02:51;;;;;;;13.50;10.30;;;;;;;14.61;70.45;98819.12;221700;1248;140071;-65
2022/09/30 21:07:56;;;;;;;13.80;10.20;;;;;;;14.62;70.65;98823.91;221878;1245;139067;-63
2022/09/30 21:13:00;;;;;;;14.40;10.60;;;;;;;14.63;70.69;98832.89;221833;1245;139740;-63
2022/09/30 21:18:06;;;;;;;14.70;10.40;;;;;;;14.62;70.57;98832.60;221610;1247;139148;-64
2022/09/30 21:23:09;;;;;;;15.00;10.00;;;;;;;14.58;70.64;98829.34;221857;1248;139514;-66
2022/09/30 21:28:18;;;;;;;12.50;9.10;;;;;;;14.60;70.80;98826.88;221842;1228;139925;-65
2022/09/30 21:33:24;;;;;;;13.00;9.50;;;;;;;14.65;70.86;98821.80;221884;1245;139433;-65
2022/09/30 21:38:30;;;;;;;13.60;11.60;;;;;;;14.69;71.00;98815.86;221833;1244;139165;-65
2022/09/30 21:43:35;;;;;;;;;;;;;;;14.68;70.91;98819.15;221738;1246;139353;-66
2022/09/30 21:48:41;;;;;;;15.20;11.90;;;;;;;14.64;70.96;98819.57;221971;1244;126373;-65
2022/09/30 21:53:47;;;;;;;18.70;13.00;;;;;;;14.61;71.01;98820.55;221984;1250;139457;-65
2022/09/30 21:58:51;;;;;;;16.20;12.40;;;;;;;14.65;71.14;98821.10;221747;1245;140282;-62
2022/09/30 22:03:55;;;;;;;15.10;12.20;;;;;;;14.71;71.16;98824.04;221563;1246;140140;-64
2022/09/30 22:09:00;;;;;;;19.00;14.60;;;;;;;14.73;71.13;98824.74;221745;1243;140096;-64
2022/09/30 22:14:05;;;;;;;19.50;14.40;;;;;;;14.75;71.12;98818.69;221858;1249;140591;-64
2022/09/30 22:19:11;;;;;;;19.80;13.90;;;;;;;14.76;71.25;98813.11;221974;1245;139186;-65
2022/09/30 22:24:15;;;;;;;19.90;13.50;;;;;;;14.75;71.09;98813.50;221949;1247;140177;-65
2022/09/30 22:29:19;;;;;;;17.70;14.10;;;;;;;14.77;70.92;98813.92;221805;1244;141189;-64
2022/09/30 22:39:47;;;;;;;23.20;16.20;;;;;;;14.77;70.97;98800.32;221894;1244;140920;-65
2022/09/30 22:44:51;;;;;;;22.00;16.10;;;;;;;14.76;71.04;98800.19;221911;1245;140101;-65
2022/09/30 22:49:56;;;;;;;22.10;15.50;;;;;;;14.76;71.01;98807.58;221791;1250;139767;-67
2022/09/30 22:55:01;;;;;;;20.40;14.50;;;;;;;14.71;70.94;98814.80;222031;1247;139459;-66
2022/09/30 23:00:07;;;;;;;20.70;14.50;;;;;;;14.69;70.92;98811.49;222917;1249;141517;-65
2022/09/30 23:05:10;;;;;;;21.10;14.30;;;;;;;14.70;71.03;98810.90;224085;1251;140898;-66
2022/09/30 23:10:20;;;;;;;22.80;15.30;;;;;;;14.69;70.97;98805.60;224115;1254;141057;-65
2022/09/30 23:15:22;;;;;;;21.80;15.80;;;;;;;14.71;71.05;98820.84;224791;1244;139257;-66
2022/09/30 23:20:25;;;;;;;22.90;16.60;;;;;;;14.68;71.01;98826.41;224772;1244;138837;-66
2022/09/30 23:25:30;;;;;;;21.10;15.90;;;;;;;14.68;70.93;98814.64;224207;1254;139297;-65
2022/09/30 23:30:34;;;;;;;20.50;15.60;;;;;;;14.74;70.97;98809.52;224845;1249;254556;-65
2022/09/30 23:35:36;;;;;;;24.40;17.70;;;;;;;14.80;71.01;98805.80;224815;1241;139894;-64
2022/09/30 23:40:47;;;;;;;23.40;16.40;;;;;;;14.85;70.98;98819.50;224755;1247;139415;-64